DLH1PX EDDV-EDDM
Flight info
| Callsign | DLH1PX |
|---|---|
| Flight time | N/A |
| Altitude | 31000 |
| Route | POVEL2Y POVEL Z94 GALMA T703 LULAR/N0468F300 T105 LANDU LANDU2A |
| Aircraft | A320/M-SDE3FGHIRWY/LB1 |
Departure
| Time | 2026-05-01 12:40 |
|---|---|
| Airport | Hannover Airport (EDDV) |
Arrival
| Time | N/A |
|---|---|
| Airport | Munich Airport (EDDM) |
| Time | Latitude | Longitude | Altitude | Speed | Heading |
|---|---|---|---|---|---|
| 2026-05-01 12:19 | 52.45837 | 9.69392 | 178 ft | 0 kts | 30° |
| 2026-05-01 12:31 | 52.45835 | 9.69391 | 178 ft | 2 kts | 30° |
| 2026-05-01 12:32 | 52.45825 | 9.69381 | 178 ft | 2 kts | 30° |
| 2026-05-01 12:32 | 52.45796 | 9.69353 | 178 ft | 3 kts | 17° |
| 2026-05-01 12:32 | 52.45784 | 9.69348 | 178 ft | 3 kts | 353° |
| 2026-05-01 12:33 | 52.45763 | 9.69363 | 178 ft | 3 kts | 304° |
| 2026-05-01 12:33 | 52.45756 | 9.69386 | 178 ft | 0 kts | 277° |
| 2026-05-01 12:35 | 52.45761 | 9.69314 | 178 ft | 13 kts | 277° |
| 2026-05-01 12:35 | 52.45736 | 9.69166 | 178 ft | 13 kts | 219° |
| 2026-05-01 12:36 | 52.45647 | 9.69135 | 178 ft | 13 kts | 200° |
| 2026-05-01 12:36 | 52.45626 | 9.69005 | 178 ft | 12 kts | 272° |
| 2026-05-01 12:36 | 52.45631 | 9.68877 | 178 ft | 11 kts | 273° |
| 2026-05-01 12:36 | 52.45634 | 9.68761 | 178 ft | 9 kts | 273° |
| 2026-05-01 12:37 | 52.45638 | 9.68660 | 178 ft | 8 kts | 273° |
| 2026-05-01 12:37 | 52.45640 | 9.68570 | 178 ft | 7 kts | 272° |
| 2026-05-01 12:37 | 52.45643 | 9.68481 | 178 ft | 12 kts | 272° |
| 2026-05-01 12:37 | 52.45639 | 9.68302 | 178 ft | 17 kts | 246° |
| 2026-05-01 12:38 | 52.45530 | 9.68254 | 181 ft | 17 kts | 182° |
| 2026-05-01 12:38 | 52.45482 | 9.68321 | 181 ft | 4 kts | 94° |
| 2026-05-01 12:38 | 52.45481 | 9.68341 | 181 ft | 0 kts | 95° |
| 2026-05-01 12:39 | 52.45481 | 9.68351 | 182 ft | 3 kts | 95° |
| 2026-05-01 12:39 | 52.45457 | 9.68725 | 182 ft | 72 kts | 96° |
| 2026-05-01 12:39 | 52.45428 | 9.69913 | 190 ft | 135 kts | 94° |
| 2026-05-01 12:39 | 52.45380 | 9.71547 | 695 ft | 145 kts | 95° |
| 2026-05-01 12:40 | 52.45340 | 9.73230 | 1430 ft | 149 kts | 94° |
| 2026-05-01 12:40 | 52.45307 | 9.74926 | 2129 ft | 151 kts | 94° |
| 2026-05-01 12:40 | 52.45250 | 9.76747 | 2530 ft | 171 kts | 96° |
| 2026-05-01 12:40 | 52.45175 | 9.78814 | 2884 ft | 193 kts | 95° |
| 2026-05-01 12:41 | 52.45094 | 9.81142 | 3235 ft | 217 kts | 95° |
| 2026-05-01 12:41 | 52.45010 | 9.83757 | 3696 ft | 242 kts | 94° |
| 2026-05-01 12:41 | 52.44927 | 9.86603 | 4401 ft | 255 kts | 95° |
| 2026-05-01 12:41 | 52.44849 | 9.89532 | 5341 ft | 259 kts | 95° |
| 2026-05-01 12:42 | 52.44712 | 9.92501 | 6288 ft | 262 kts | 102° |
| 2026-05-01 12:42 | 52.44160 | 9.95347 | 7178 ft | 264 kts | 117° |
| 2026-05-01 12:42 | 52.43251 | 9.97981 | 8056 ft | 266 kts | 121° |
| 2026-05-01 12:42 | 52.42323 | 10.00583 | 8946 ft | 269 kts | 121° |
| 2026-05-01 12:43 | 52.41377 | 10.03250 | 9812 ft | 273 kts | 121° |
| 2026-05-01 12:43 | 52.40419 | 10.05961 | 10405 ft | 276 kts | 121° |
| 2026-05-01 12:43 | 52.39432 | 10.08753 | 10855 ft | 294 kts | 121° |
| 2026-05-01 12:43 | 52.38366 | 10.11758 | 11119 ft | 318 kts | 121° |
| 2026-05-01 12:44 | 52.37210 | 10.15018 | 11321 ft | 341 kts | 121° |
| 2026-05-01 12:44 | 52.35994 | 10.18445 | 11762 ft | 354 kts | 121° |
| 2026-05-01 12:44 | 52.33487 | 10.25496 | 13177 ft | 362 kts | 121° |
| 2026-05-01 12:45 | 52.30917 | 10.32689 | 14546 ft | 369 kts | 121° |
| 2026-05-01 12:45 | 52.29613 | 10.36330 | 15151 ft | 373 kts | 120° |
| 2026-05-01 12:45 | 52.28297 | 10.40004 | 15744 ft | 377 kts | 120° |
| 2026-05-01 12:46 | 52.26963 | 10.43718 | 16307 ft | 381 kts | 120° |
| 2026-05-01 12:46 | 52.25634 | 10.47417 | 16864 ft | 384 kts | 120° |
| 2026-05-01 12:46 | 52.24274 | 10.51201 | 17415 ft | 388 kts | 120° |
| 2026-05-01 12:46 | 52.22901 | 10.55019 | 17970 ft | 392 kts | 120° |
| 2026-05-01 12:47 | 52.21514 | 10.58862 | 18512 ft | 395 kts | 120° |
| 2026-05-01 12:47 | 52.20112 | 10.62742 | 18990 ft | 399 kts | 120° |
| 2026-05-01 12:47 | 52.18692 | 10.66660 | 19454 ft | 402 kts | 120° |
| 2026-05-01 12:47 | 52.17264 | 10.70588 | 19936 ft | 405 kts | 120° |
| 2026-05-01 12:48 | 52.15822 | 10.74554 | 20399 ft | 408 kts | 120° |
| 2026-05-01 12:48 | 52.14308 | 10.78479 | 20858 ft | 411 kts | 125° |
| 2026-05-01 12:48 | 52.12420 | 10.82014 | 21303 ft | 416 kts | 135° |
| 2026-05-01 12:48 | 52.10155 | 10.84976 | 21755 ft | 420 kts | 145° |
| 2026-05-01 12:49 | 52.07597 | 10.87325 | 22192 ft | 424 kts | 151° |
| 2026-05-01 12:49 | 52.04980 | 10.89568 | 22631 ft | 426 kts | 150° |
| 2026-05-01 12:49 | 52.02386 | 10.91799 | 23055 ft | 429 kts | 150° |
| 2026-05-01 12:49 | 51.99744 | 10.94079 | 23482 ft | 431 kts | 150° |
| 2026-05-01 12:50 | 51.97089 | 10.96376 | 23912 ft | 434 kts | 150° |
| 2026-05-01 12:50 | 51.94415 | 10.98691 | 24248 ft | 437 kts | 150° |
| 2026-05-01 12:50 | 51.91725 | 11.01021 | 24600 ft | 439 kts | 150° |
| 2026-05-01 12:50 | 51.89023 | 11.03354 | 24948 ft | 441 kts | 150° |
| 2026-05-01 12:51 | 51.86304 | 11.05693 | 25285 ft | 444 kts | 150° |
| 2026-05-01 12:51 | 51.83567 | 11.08039 | 25619 ft | 446 kts | 150° |
| 2026-05-01 12:51 | 51.78047 | 11.12744 | 26254 ft | 450 kts | 151° |
| 2026-05-01 12:52 | 51.75256 | 11.15119 | 26560 ft | 453 kts | 151° |
| 2026-05-01 12:52 | 51.69664 | 11.19886 | 27152 ft | 457 kts | 150° |
| 2026-05-01 12:52 | 51.66846 | 11.22286 | 27441 ft | 459 kts | 150° |
| 2026-05-01 12:53 | 51.61208 | 11.27076 | 28099 ft | 461 kts | 151° |
| 2026-05-01 12:53 | 51.58369 | 11.29481 | 28517 ft | 460 kts | 151° |
| 2026-05-01 12:53 | 51.55540 | 11.31872 | 28937 ft | 460 kts | 151° |
| 2026-05-01 12:54 | 51.52709 | 11.34261 | 29327 ft | 459 kts | 151° |
| 2026-05-01 12:54 | 51.47051 | 11.39023 | 30148 ft | 458 kts | 151° |
| 2026-05-01 12:54 | 51.44226 | 11.41392 | 30540 ft | 458 kts | 151° |
| 2026-05-01 12:55 | 51.38582 | 11.46123 | 31225 ft | 457 kts | 151° |
| 2026-05-01 12:55 | 51.35755 | 11.48490 | 31376 ft | 459 kts | 151° |
| 2026-05-01 12:56 | 51.30070 | 11.53220 | 31402 ft | 462 kts | 151° |
| 2026-05-01 12:56 | 51.24360 | 11.57952 | 31399 ft | 462 kts | 151° |
| 2026-05-01 12:57 | 51.18648 | 11.62687 | 31400 ft | 463 kts | 151° |
| 2026-05-01 12:57 | 51.12758 | 11.66815 | 31400 ft | 465 kts | 163° |
| 2026-05-01 12:57 | 51.09581 | 11.67875 | 31398 ft | 467 kts | 172° |
| 2026-05-01 12:58 | 51.08536 | 11.68053 | 31399 ft | 467 kts | 174° |